Terminal Aerodrome Forecast
Issued by NWS Mt. Holly, NJ

Home | Current Version | Previous Version | Text Only | Print | Product List | Glossary On
Versions: 1 2 3 4 5 6 7 8 9 10 11 12
000
FTUS41 KPHI 262340
TAFABE
TAF
KABE 262340Z 2700/2724 33004KT P6SM BKN070
     FM270400 VRB03KT P6SM SHRA BKN050
     FM270800 07004KT 5SM -SHRA BR OVC050
     FM271200 06009KT 3SM -SHRA BR OVC015
     FM271500 07010KT 3SM -SHRA BR OVC008
     FM271800 07011KT 3SM BR OVC005=

USA.gov is the U.S. government's official web portal to all federal, state and local government web resources and services.